createdAt,value
2023-04-08T00:00:10.204Z,11.00
2023-04-08T00:02:37.196Z,11.43
2023-04-08T00:05:04.363Z,13.23
2023-04-08T00:07:31.230Z,11.97
2023-04-08T00:09:57.858Z,13.63
2023-04-08T00:12:24.526Z,10.00
2023-04-08T00:14:51.133Z,12.13
2023-04-08T00:17:21.073Z,13.27
2023-04-08T00:19:47.714Z,11.57
2023-04-08T00:22:14.320Z,10.33
2023-04-08T00:24:41.122Z,12.07
2023-04-08T00:27:07.819Z,12.20
2023-04-08T00:29:34.758Z,11.50
2023-04-08T00:32:01.353Z,11.30
2023-04-08T00:34:28.016Z,13.60
2023-04-08T00:36:54.619Z,11.07
2023-04-08T00:39:21.214Z,14.03
2023-04-08T00:41:47.830Z,14.17
2023-04-08T00:44:14.458Z,13.97
2023-04-08T00:46:41.450Z,10.23
2023-04-08T00:49:08.388Z,11.67
2023-04-08T00:51:37.687Z,15.07
2023-04-08T00:54:05.231Z,13.27
2023-04-08T00:56:32.864Z,12.70
2023-04-08T00:59:00.861Z,11.93
2023-04-08T01:01:39.729Z,12.63
2023-04-08T01:04:47.614Z,11.07
2023-04-08T01:07:29.209Z,10.97
2023-04-08T01:09:59.011Z,12.90
2023-04-08T01:12:28.802Z,13.40
2023-04-08T01:15:07.545Z,13.47
2023-04-08T01:17:36.437Z,13.90
2023-04-08T01:20:04.999Z,12.67
2023-04-08T01:22:43.493Z,13.60
2023-04-08T01:25:18.848Z,13.83
2023-04-08T01:27:48.332Z,14.70
2023-04-08T01:30:18.600Z,13.23
2023-04-08T01:32:46.994Z,14.10
2023-04-08T01:35:16.030Z,14.20
2023-04-08T01:37:43.235Z,11.87
2023-04-08T01:40:11.166Z,11.27
2023-04-08T01:42:38.582Z,13.37
2023-04-08T01:45:07.023Z,11.77
2023-04-08T01:47:34.932Z,14.67
2023-04-08T01:50:01.942Z,11.97
2023-04-08T01:52:30.301Z,16.13
2023-04-08T01:54:57.110Z,12.23
2023-04-08T01:57:26.418Z,11.80
2023-04-08T01:59:56.598Z,14.10
2023-04-08T02:02:26.487Z,12.47
2023-04-08T02:04:56.379Z,13.33
2023-04-08T02:07:23.831Z,15.10
2023-04-08T02:09:51.391Z,13.37
2023-04-08T02:12:18.395Z,12.33
2023-04-08T02:14:45.444Z,13.07
2023-04-08T02:17:18.328Z,12.80
2023-04-08T02:19:52.178Z,12.80
2023-04-08T02:22:37.985Z,11.37
2023-04-08T02:25:08.170Z,14.77
2023-04-08T02:27:36.022Z,11.67
2023-04-08T02:30:05.642Z,14.57
2023-04-08T02:32:34.715Z,12.63
2023-04-08T02:35:03.818Z,17.97
2023-04-08T02:37:33.700Z,13.10
2023-04-08T02:40:00.950Z,14.13
2023-04-08T02:42:27.562Z,14.10
2023-04-08T02:44:54.446Z,13.00
2023-04-08T02:47:21.219Z,14.97
2023-04-08T02:49:47.894Z,11.33
2023-04-08T02:52:14.589Z,11.77
2023-04-08T02:54:41.177Z,12.70
2023-04-08T02:57:07.826Z,12.70
2023-04-08T02:59:37.618Z,15.67
2023-04-08T03:02:04.417Z,13.23
2023-04-08T03:04:31.173Z,11.13
2023-04-08T03:06:57.851Z,14.50
2023-04-08T03:09:24.501Z,13.20
2023-04-08T03:11:53.131Z,11.93
2023-04-08T03:14:20.224Z,13.40
2023-04-08T03:16:46.910Z,15.53
2023-04-08T03:19:13.588Z,13.67
2023-04-08T03:21:40.226Z,12.67
2023-04-08T03:24:06.978Z,13.97
2023-04-08T03:26:33.624Z,12.20
2023-04-08T03:29:00.290Z,13.67
2023-04-08T03:31:27.407Z,14.77
2023-04-08T03:33:54.071Z,12.97
2023-04-08T03:36:20.693Z,13.20
2023-04-08T03:38:47.546Z,13.53
2023-04-08T03:41:14.290Z,13.00
2023-04-08T03:43:40.898Z,14.67
2023-04-08T03:46:07.593Z,13.40
2023-04-08T03:48:34.359Z,13.80
2023-04-08T03:51:01.056Z,13.30
2023-04-08T03:53:29.202Z,15.67
2023-04-08T03:55:57.199Z,13.27
2023-04-08T03:58:24.032Z,13.17
2023-04-08T04:00:50.925Z,15.07
2023-04-08T04:03:17.723Z,13.03
2023-04-08T04:05:44.438Z,15.20
2023-04-08T04:08:11.180Z,12.93
2023-04-08T04:10:37.882Z,13.40
2023-04-08T04:13:04.550Z,11.87
2023-04-08T04:15:31.566Z,12.90
2023-04-08T04:17:58.285Z,14.37
2023-04-08T04:20:26.049Z,13.57
2023-04-08T04:22:52.806Z,15.10
2023-04-08T04:25:19.538Z,17.07
2023-04-08T04:27:46.158Z,15.80
2023-04-08T04:30:15.444Z,14.57
2023-04-08T04:32:43.016Z,13.93
2023-04-08T04:35:13.098Z,14.43
2023-04-08T04:37:39.909Z,12.57
2023-04-08T04:40:07.565Z,15.30
2023-04-08T04:42:34.275Z,16.13
2023-04-08T04:45:00.882Z,13.27
2023-04-08T04:47:27.496Z,13.80
2023-04-08T04:49:54.117Z,14.03
2023-04-08T04:52:20.820Z,15.33
2023-04-08T04:54:47.440Z,13.50
2023-04-08T04:57:14.334Z,13.83
2023-04-08T04:59:41.047Z,16.97
2023-04-08T05:02:07.846Z,17.40
2023-04-08T05:04:34.652Z,14.00
2023-04-08T05:07:01.374Z,13.93
2023-04-08T05:09:29.416Z,13.87
2023-04-08T05:11:56.665Z,11.63
2023-04-08T05:14:23.558Z,12.93
2023-04-08T05:16:50.286Z,13.20
2023-04-08T05:19:16.920Z,16.03
2023-04-08T05:21:43.556Z,14.97
2023-04-08T05:24:10.447Z,13.77
2023-04-08T05:26:40.905Z,17.67
2023-04-08T05:29:07.591Z,13.37
2023-04-08T05:31:34.285Z,11.90
2023-04-08T05:34:01.315Z,12.73
2023-04-08T05:36:28.128Z,15.40
2023-04-08T05:38:54.845Z,14.93
2023-04-08T05:41:21.629Z,15.10
2023-04-08T05:43:48.213Z,12.57
2023-04-08T05:46:14.897Z,14.70
2023-04-08T05:48:41.598Z,13.57
2023-04-08T05:51:13.938Z,13.83
2023-04-08T05:53:40.865Z,12.07
2023-04-08T05:56:07.789Z,12.97
2023-04-08T05:58:34.405Z,14.13
2023-04-08T06:01:01.052Z,12.97
2023-04-08T06:03:27.880Z,11.33
2023-04-08T06:05:54.604Z,12.67
2023-04-08T06:08:21.414Z,14.27
2023-04-08T06:10:52.016Z,11.13
2023-04-08T06:13:20.282Z,12.40
2023-04-08T06:15:48.728Z,12.63
2023-04-08T06:18:17.287Z,12.23
2023-04-08T06:20:44.088Z,11.70
2023-04-08T06:23:10.703Z,11.30
2023-04-08T06:25:37.381Z,11.17
2023-04-08T06:28:04.112Z,9.80
2023-04-08T06:30:30.945Z,13.20
2023-04-08T06:32:57.674Z,9.43
2023-04-08T06:35:24.807Z,8.83
2023-04-08T06:37:51.521Z,10.67
2023-04-08T06:40:18.261Z,8.10
2023-04-08T06:42:44.852Z,10.30
2023-04-08T06:45:11.910Z,6.80
2023-04-08T06:47:38.595Z,9.73
2023-04-08T06:50:05.976Z,7.00
2023-04-08T06:52:32.721Z,7.50
2023-04-08T06:54:59.348Z,7.03
2023-04-08T06:57:26.298Z,8.57
2023-04-08T06:59:53.479Z,6.77
2023-04-08T07:02:20.130Z,8.63
2023-04-08T07:04:47.059Z,7.23
2023-04-08T07:07:13.876Z,7.57
2023-04-08T07:09:43.304Z,6.10
2023-04-08T07:12:12.987Z,7.40
2023-04-08T07:14:39.663Z,6.97
2023-04-08T07:17:07.969Z,6.23
2023-04-08T07:19:34.939Z,9.03
2023-04-08T07:22:01.711Z,8.83
2023-04-08T07:24:28.366Z,10.27
2023-04-08T07:26:56.795Z,7.03
2023-04-08T07:29:23.454Z,14.73
2023-04-08T07:31:50.163Z,10.97
2023-04-08T07:34:16.892Z,9.13
2023-04-08T07:36:43.532Z,17.30
2023-04-08T07:39:10.374Z,12.17
2023-04-08T07:41:37.145Z,11.10
2023-04-08T07:44:03.807Z,11.70
2023-04-08T07:46:31.557Z,14.40
2023-04-08T07:48:58.505Z,16.50
2023-04-08T07:51:25.175Z,12.03
2023-04-08T07:53:51.810Z,20.83
2023-04-08T07:56:18.633Z,13.67
2023-04-08T07:58:47.073Z,13.17
2023-04-08T08:01:18.859Z,10.57
2023-04-08T08:03:47.570Z,10.17
2023-04-08T08:06:14.963Z,11.77
2023-04-08T08:08:41.631Z,11.67
2023-04-08T08:11:08.349Z,13.23
2023-04-08T08:13:35.124Z,10.33
2023-04-08T08:16:01.957Z,12.70
2023-04-08T08:18:28.651Z,9.80
2023-04-08T08:20:55.299Z,13.80
2023-04-08T08:23:21.995Z,10.30
2023-04-08T08:25:48.627Z,15.60
2023-04-08T08:28:15.244Z,12.40
2023-04-08T08:30:41.890Z,10.33
2023-04-08T08:33:08.574Z,10.27
2023-04-08T08:35:35.404Z,12.10
2023-04-08T08:38:02.579Z,8.27
2023-04-08T08:40:29.218Z,8.83
2023-04-08T08:42:59.011Z,6.73
2023-04-08T08:45:25.917Z,11.60
2023-04-08T08:47:52.967Z,8.93
2023-04-08T08:50:20.273Z,7.30
2023-04-08T08:52:51.633Z,7.17
2023-04-08T08:55:36.365Z,8.10
2023-04-08T08:58:10.109Z,9.00
2023-04-08T09:00:42.358Z,10.60
2023-04-08T09:03:22.868Z,8.87
2023-04-08T09:05:58.563Z,9.70
2023-04-08T09:08:30.084Z,10.37
2023-04-08T09:11:11.257Z,10.13
2023-04-08T09:13:38.328Z,16.47
2023-04-08T09:16:10.126Z,10.13
2023-04-08T09:18:41.054Z,10.33
2023-04-08T09:21:07.784Z,8.97
2023-04-08T09:23:42.165Z,10.33
2023-04-08T09:26:22.175Z,16.17
2023-04-08T09:29:11.039Z,9.33
2023-04-08T09:31:47.090Z,11.03
2023-04-08T09:34:17.037Z,9.20
2023-04-08T09:36:47.398Z,8.73
2023-04-08T09:39:14.036Z,12.53
2023-04-08T09:41:42.001Z,9.23
2023-04-08T09:44:11.207Z,10.10
2023-04-08T09:46:49.758Z,9.43
2023-04-08T09:49:26.975Z,11.07
2023-04-08T09:52:04.093Z,10.83
2023-04-08T09:54:41.442Z,8.80
2023-04-08T09:57:16.319Z,10.40
2023-04-08T09:59:52.464Z,12.83
2023-04-08T10:02:25.830Z,13.53
2023-04-08T10:04:54.450Z,10.93
2023-04-08T10:07:21.366Z,13.37
2023-04-08T10:09:49.384Z,10.23
2023-04-08T10:12:16.486Z,10.93
2023-04-08T10:15:03.512Z,11.77
2023-04-08T10:17:36.490Z,10.73
2023-04-08T10:20:03.208Z,11.60
2023-04-08T10:22:29.788Z,8.57
2023-04-08T10:25:18.151Z,11.73
2023-04-08T10:27:45.566Z,11.20
2023-04-08T10:30:33.292Z,8.07
2023-04-08T10:33:00.824Z,9.40
2023-04-08T10:35:31.952Z,10.00
2023-04-08T10:37:59.283Z,7.60
2023-04-08T10:40:26.323Z,7.63
2023-04-08T10:42:56.523Z,8.50
2023-04-08T10:45:23.715Z,11.20
2023-04-08T10:47:50.988Z,9.37
2023-04-08T10:50:19.370Z,7.67
2023-04-08T10:52:54.002Z,9.53
2023-04-08T10:55:24.866Z,7.73
2023-04-08T10:57:51.763Z,8.20
2023-04-08T11:00:40.289Z,8.43
2023-04-08T11:03:08.760Z,7.60
2023-04-08T11:05:39.461Z,7.33
2023-04-08T11:08:06.658Z,7.03
2023-04-08T11:10:38.810Z,7.53
2023-04-08T11:13:08.844Z,10.37
2023-04-08T11:15:36.462Z,8.80
2023-04-08T11:18:05.254Z,7.93
2023-04-08T11:20:35.979Z,6.57
2023-04-08T11:23:05.886Z,6.37
2023-04-08T11:25:32.716Z,7.00
2023-04-08T11:28:00.369Z,7.23
2023-04-08T11:30:28.094Z,6.67
2023-04-08T11:32:55.803Z,7.23
2023-04-08T11:35:22.630Z,6.80
2023-04-08T11:37:49.791Z,6.10
2023-04-08T11:40:21.694Z,7.37
2023-04-08T11:42:48.704Z,8.27
2023-04-08T11:45:17.266Z,7.70
2023-04-08T11:47:44.647Z,7.23
2023-04-08T11:50:11.532Z,6.53
2023-04-08T11:52:45.258Z,7.90
2023-04-08T11:55:21.621Z,7.17
2023-04-08T11:57:48.583Z,7.63
2023-04-08T12:00:15.225Z,7.45
2023-04-08T12:02:41.994Z,6.23
2023-04-08T12:05:09.050Z,7.40
2023-04-08T12:07:35.848Z,7.13
2023-04-08T12:10:02.488Z,8.13
2023-04-08T12:12:29.188Z,6.10
2023-04-08T12:14:55.873Z,6.20
2023-04-08T12:17:22.622Z,6.93
2023-04-08T12:19:49.680Z,6.10
2023-04-08T12:22:16.690Z,6.67
2023-04-08T12:24:43.752Z,6.37
2023-04-08T12:27:10.438Z,7.27
2023-04-08T12:29:37.111Z,6.50
2023-04-08T12:32:05.523Z,7.67
2023-04-08T12:34:34.735Z,6.37
2023-04-08T12:37:02.394Z,6.47
2023-04-08T12:39:29.068Z,7.07
2023-04-08T12:41:56.841Z,5.73
2023-04-08T12:44:23.601Z,6.10
2023-04-08T12:46:50.466Z,6.37
2023-04-08T12:49:17.343Z,5.80
2023-04-08T12:51:44.044Z,5.77
2023-04-08T12:54:10.709Z,6.60
2023-04-08T12:56:39.035Z,6.13
2023-04-08T12:59:05.856Z,5.90
2023-04-08T13:01:32.715Z,5.67
2023-04-08T13:04:00.151Z,6.27
2023-04-08T13:06:27.678Z,6.43
2023-04-08T13:08:55.365Z,5.80
2023-04-08T13:11:22.150Z,5.50
2023-04-08T13:13:48.881Z,6.30
2023-04-08T13:16:16.165Z,6.77
2023-04-08T13:18:43.214Z,5.70
2023-04-08T13:21:10.280Z,5.63
2023-04-08T13:23:37.064Z,4.87
2023-04-08T13:26:03.779Z,5.27
2023-04-08T13:28:30.468Z,5.17
2023-04-08T13:30:57.150Z,5.73
2023-04-08T13:33:23.771Z,4.73
2023-04-08T13:35:50.609Z,7.70
2023-04-08T13:38:17.348Z,4.77
2023-04-08T13:40:45.978Z,5.00
2023-04-08T13:43:14.512Z,4.77
2023-04-08T13:45:41.807Z,4.23
2023-04-08T13:48:08.616Z,4.60
2023-04-08T13:50:35.419Z,4.40
2023-04-08T13:53:04.857Z,4.53
2023-04-08T13:55:31.867Z,6.13
2023-04-08T13:57:58.585Z,4.00
2023-04-08T14:00:25.501Z,4.60
2023-04-08T14:02:52.342Z,4.10
2023-04-08T14:05:19.236Z,3.70
2023-04-08T14:07:45.980Z,3.23
2023-04-08T14:10:14.406Z,3.90
2023-04-08T14:12:41.264Z,5.00
2023-04-08T14:15:08.664Z,3.70
2023-04-08T14:17:36.133Z,3.67
2023-04-08T14:20:03.891Z,3.50
2023-04-08T14:22:30.601Z,3.77
2023-04-08T14:24:57.613Z,3.67
2023-04-08T14:27:24.281Z,3.30
2023-04-08T14:29:50.961Z,3.00
2023-04-08T14:32:17.692Z,3.23
2023-04-08T14:34:44.666Z,3.50
2023-04-08T14:37:12.201Z,3.73
2023-04-08T14:39:38.874Z,3.50
2023-04-08T14:42:05.533Z,3.33
2023-04-08T14:44:32.195Z,4.00
2023-04-08T14:46:58.875Z,4.07
2023-04-08T14:49:25.584Z,4.17
2023-04-08T14:51:53.336Z,3.83
2023-04-08T14:54:20.282Z,3.27
2023-04-08T14:56:47.087Z,3.43
2023-04-08T14:59:13.718Z,2.90
2023-04-08T15:01:41.327Z,2.90
2023-04-08T15:04:08.139Z,2.93
2023-04-08T15:06:34.891Z,3.10
2023-04-08T15:09:01.534Z,2.87
2023-04-08T15:11:28.197Z,3.37
2023-04-08T15:13:54.853Z,2.73
2023-04-08T15:16:24.673Z,3.40
2023-04-08T15:18:51.482Z,3.30
2023-04-08T15:21:18.248Z,3.07
2023-04-08T15:23:44.864Z,4.13
2023-04-08T15:26:14.320Z,5.57
2023-04-08T15:28:41.423Z,3.50
2023-04-08T15:31:09.617Z,3.43
2023-04-08T15:33:41.229Z,3.23
2023-04-08T15:36:08.538Z,3.30
2023-04-08T15:38:35.623Z,4.13
2023-04-08T15:41:02.607Z,2.97
2023-04-08T15:43:29.817Z,3.27
2023-04-08T15:45:56.513Z,3.80
2023-04-08T15:48:23.219Z,3.50
2023-04-08T15:50:49.910Z,3.67
2023-04-08T15:53:16.686Z,3.80
2023-04-08T15:55:43.331Z,3.63
2023-04-08T15:58:09.984Z,4.60
2023-04-08T16:00:37.263Z,4.17
2023-04-08T16:03:05.477Z,4.63
2023-04-08T16:05:35.658Z,4.13
2023-04-08T16:08:02.728Z,4.00
2023-04-08T16:10:29.374Z,3.90
2023-04-08T16:12:56.980Z,4.13
2023-04-08T16:15:24.774Z,4.87
2023-04-08T16:17:52.596Z,5.13
2023-04-08T16:20:21.218Z,5.23
2023-04-08T16:22:47.851Z,3.53
2023-04-08T16:25:14.953Z,3.83
2023-04-08T16:27:41.760Z,3.90
2023-04-08T16:30:09.040Z,3.70
2023-04-08T16:32:35.785Z,3.60
2023-04-08T16:35:02.543Z,3.53
2023-04-08T16:37:29.277Z,3.33
2023-04-08T16:39:56.819Z,3.30
2023-04-08T16:42:23.467Z,4.33
2023-04-08T16:44:50.295Z,3.63
2023-04-08T16:47:16.948Z,3.33
2023-04-08T16:49:43.564Z,3.67
2023-04-08T16:52:10.227Z,3.87
2023-04-08T16:54:36.948Z,3.30
2023-04-08T16:57:03.817Z,3.00
2023-04-08T16:59:30.560Z,3.97
2023-04-08T17:01:57.313Z,3.17
2023-04-08T17:04:24.137Z,3.43
2023-04-08T17:06:52.061Z,3.10
2023-04-08T17:09:18.884Z,3.10
2023-04-08T17:11:45.729Z,2.87
2023-04-08T17:14:12.332Z,6.03
2023-04-08T17:16:39.106Z,2.73
2023-04-08T17:19:06.041Z,2.90
2023-04-08T17:21:33.077Z,3.30
2023-04-08T17:23:59.800Z,3.10
2023-04-08T17:26:28.167Z,2.90
2023-04-08T17:28:54.858Z,2.80
2023-04-08T17:31:21.582Z,4.23
2023-04-08T17:33:48.586Z,3.23
2023-04-08T17:36:17.404Z,4.83
2023-04-08T17:38:44.198Z,3.50
2023-04-08T17:41:13.404Z,4.03
2023-04-08T17:43:42.389Z,4.87
2023-04-08T17:46:09.015Z,3.77
2023-04-08T17:48:36.480Z,3.70
2023-04-08T17:51:07.105Z,4.10
2023-04-08T17:53:34.260Z,6.03
2023-04-08T17:56:01.787Z,4.90
2023-04-08T17:58:29.050Z,7.03
2023-04-08T18:00:55.905Z,4.70
2023-04-08T18:03:23.097Z,6.77
2023-04-08T18:05:50.491Z,6.17
2023-04-08T18:08:17.256Z,7.30
2023-04-08T18:10:45.149Z,6.13
2023-04-08T18:13:13.312Z,6.80
2023-04-08T18:15:40.458Z,8.53
2023-04-08T18:18:07.803Z,6.83
2023-04-08T18:20:37.774Z,8.30
2023-04-08T18:23:04.781Z,6.57
2023-04-08T18:25:32.708Z,5.73
2023-04-08T18:27:59.492Z,6.63
2023-04-08T18:30:26.568Z,6.60
2023-04-08T18:32:53.362Z,6.77
2023-04-08T18:35:20.938Z,6.57
2023-04-08T18:37:47.788Z,6.13
2023-04-08T18:40:15.406Z,5.60
2023-04-08T18:42:42.089Z,5.57
2023-04-08T18:45:08.890Z,7.27
2023-04-08T18:47:35.622Z,5.90
2023-04-08T18:50:03.453Z,7.00
2023-04-08T18:52:32.024Z,6.70
2023-04-08T18:54:59.971Z,7.00
2023-04-08T18:57:27.083Z,8.00
2023-04-08T18:59:56.192Z,7.43
2023-04-08T19:02:23.104Z,7.60
2023-04-08T19:04:49.948Z,8.87
2023-04-08T19:07:17.247Z,9.57
2023-04-08T19:09:43.958Z,8.27
2023-04-08T19:12:10.708Z,9.30
2023-04-08T19:14:37.455Z,9.33
2023-04-08T19:17:04.156Z,9.73
2023-04-08T19:19:30.993Z,10.27
2023-04-08T19:21:58.356Z,10.53
2023-04-08T19:24:25.278Z,10.43
2023-04-08T19:26:53.068Z,10.73
2023-04-08T19:29:22.962Z,9.67
2023-04-08T19:31:49.761Z,10.13
2023-04-08T19:34:16.481Z,9.73
2023-04-08T19:36:43.215Z,8.87
2023-04-08T19:39:09.968Z,10.07
2023-04-08T19:41:39.009Z,10.60
2023-04-08T19:44:05.873Z,10.63
2023-04-08T19:46:32.667Z,11.97
2023-04-08T19:48:59.536Z,10.63
2023-04-08T19:51:27.831Z,11.10
2023-04-08T19:53:54.708Z,11.67
2023-04-08T19:56:21.609Z,10.97
2023-04-08T19:58:48.402Z,11.47
2023-04-08T20:01:15.303Z,9.93
2023-04-08T20:03:42.189Z,10.53
2023-04-08T20:06:09.305Z,11.90
2023-04-08T20:08:36.218Z,10.90
2023-04-08T20:11:04.633Z,11.33
2023-04-08T20:13:31.472Z,10.73
2023-04-08T20:15:58.150Z,8.90
2023-04-08T20:18:25.310Z,11.67
2023-04-08T20:20:52.099Z,10.60
2023-04-08T20:23:18.987Z,12.33
2023-04-08T20:25:45.658Z,11.10
2023-04-08T20:28:12.753Z,12.23
2023-04-08T20:30:39.513Z,12.10
2023-04-08T20:33:06.639Z,12.37
2023-04-08T20:35:33.270Z,14.30
2023-04-08T20:38:00.046Z,11.63
2023-04-08T20:40:27.022Z,10.47
2023-04-08T20:42:56.716Z,11.53
2023-04-08T20:45:24.013Z,10.83
2023-04-08T20:47:50.729Z,13.60
2023-04-08T20:50:17.675Z,11.67
2023-04-08T20:52:44.409Z,12.87
2023-04-08T20:55:11.133Z,11.93
2023-04-08T20:57:37.963Z,10.87
2023-04-08T21:00:06.088Z,11.57
2023-04-08T21:02:33.685Z,12.83
2023-04-08T21:05:00.484Z,12.23
2023-04-08T21:07:27.487Z,10.67
2023-04-08T21:09:54.124Z,12.97
2023-04-08T21:12:22.157Z,10.87
2023-04-08T21:14:50.712Z,15.17
2023-04-08T21:17:18.808Z,11.90
2023-04-08T21:19:46.603Z,12.33
2023-04-08T21:22:13.314Z,12.57
2023-04-08T21:24:40.564Z,14.90
2023-04-08T21:27:07.240Z,11.33
2023-04-08T21:29:34.086Z,9.97
2023-04-08T21:32:00.884Z,10.80
2023-04-08T21:34:27.744Z,11.60
2023-04-08T21:36:54.384Z,11.40
2023-04-08T21:39:21.034Z,11.37
2023-04-08T21:41:47.942Z,11.30
2023-04-08T21:44:15.519Z,15.47
2023-04-08T21:46:42.225Z,11.57
2023-04-08T21:49:11.122Z,11.80
2023-04-08T21:51:39.138Z,12.07
2023-04-08T21:54:05.830Z,10.37
2023-04-08T21:56:32.560Z,12.27
2023-04-08T21:58:59.239Z,11.23
2023-04-08T22:01:26.609Z,11.03
2023-04-08T22:03:55.361Z,11.40
2023-04-08T22:06:31.556Z,10.97
2023-04-08T22:08:59.113Z,10.43
2023-04-08T22:11:25.878Z,11.03
2023-04-08T22:13:52.557Z,11.53
2023-04-08T22:16:19.231Z,9.50
2023-04-08T22:18:46.473Z,8.20
2023-04-08T22:21:13.181Z,8.43
2023-04-08T22:23:40.472Z,8.73
2023-04-08T22:26:07.165Z,8.63
2023-04-08T22:28:34.335Z,8.87
2023-04-08T22:31:01.384Z,8.40
2023-04-08T22:33:28.188Z,8.53
2023-04-08T22:35:57.453Z,9.47
2023-04-08T22:38:24.244Z,8.93
2023-04-08T22:40:51.059Z,10.30
2023-04-08T22:43:17.709Z,8.77
2023-04-08T22:45:44.620Z,9.37
2023-04-08T22:48:11.499Z,9.93
2023-04-08T22:50:38.195Z,8.90
2023-04-08T22:53:05.189Z,9.87
2023-04-08T22:55:32.342Z,8.13
2023-04-08T22:57:59.101Z,8.23
2023-04-08T23:00:25.898Z,9.90
2023-04-08T23:02:52.878Z,10.53
2023-04-08T23:05:19.820Z,8.63
2023-04-08T23:07:46.601Z,10.37
2023-04-08T23:10:16.302Z,8.63
2023-04-08T23:12:42.959Z,9.03
2023-04-08T23:15:11.104Z,10.40
2023-04-08T23:17:37.801Z,11.07
2023-04-08T23:20:05.175Z,8.60
2023-04-08T23:22:31.852Z,9.60
2023-04-08T23:24:58.570Z,9.27
2023-04-08T23:27:25.236Z,10.23
2023-04-08T23:29:51.859Z,9.00
2023-04-08T23:32:18.486Z,9.53
2023-04-08T23:34:45.288Z,8.37
2023-04-08T23:37:11.919Z,8.20
2023-04-08T23:39:38.579Z,9.60
2023-04-08T23:42:05.487Z,8.67
2023-04-08T23:44:32.187Z,9.07
2023-04-08T23:46:58.830Z,8.73
2023-04-08T23:49:25.468Z,9.67
2023-04-08T23:51:53.533Z,8.20
2023-04-08T23:54:20.278Z,8.13
2023-04-08T23:56:46.958Z,7.73
2023-04-08T23:59:13.646Z,9.50
